Time;durP1;ratioP1;P1;durP2;ratioP2;P2;SDS_P1;SDS_P2;PMS_P1;PMS_P2;Temp;Humidity;BMP_temperature;BMP_pressure;BME280_temperature;BME280_humidity;BME280_pressure;Samples;Min_cycle;Max_cycle;Signal;HPM_P1;HPM_P2
2023/08/04 00:00:03;;;;;;;;;;;;;;;25.14;63.62;96552.69;616976;230;66636;-69
2023/08/04 00:02:31;;;;;;;;;;;;;;;25.14;63.59;96547.31;617146;230;46407;-69
2023/08/04 00:04:59;;;;;;;;;;;;;;;25.12;63.60;96544.92;616988;230;66792;-69
2023/08/04 00:07:26;;;;;;;;;;;;;;;25.13;63.60;96543.05;616933;230;64376;-69
2023/08/04 00:09:53;;;;;;;;;;;;;;;25.14;63.70;96544.62;617049;230;64559;-69
2023/08/04 00:12:21;;;;;;;;;;;;;;;25.13;63.43;96543.84;616943;229;66491;-69
2023/08/04 00:14:49;;;;;;;;;;;;;;;25.13;63.72;96543.05;617056;230;66718;-73
2023/08/04 00:17:17;;;;;;;;;;;;;;;25.12;63.79;96538.76;616976;230;64602;-69
2023/08/04 00:19:44;;;;;;;;;;;;;;;25.12;63.67;96541.45;616981;230;67096;-69
2023/08/04 00:22:12;;;;;;;;;;;;;;;25.12;63.78;96542.23;617020;230;66780;-69
2023/08/04 00:24:39;;;;;;;;;;;;;;;25.11;63.82;96540.66;617021;230;64613;-69
2023/08/04 00:27:07;;;;;;;;;;;;;;;25.12;63.87;96539.55;617003;230;64677;-69
2023/08/04 00:29:34;;;;;;;;;;;;;;;25.11;63.79;96540.66;617060;230;67542;-69
2023/08/04 00:32:04;;;;;;;;;;;;;;;25.12;63.77;96541.45;616952;230;65340;-70
2023/08/04 00:34:31;;;;;;;;;;;;;;;25.11;63.83;96546.03;617019;230;66819;-69
2023/08/04 00:36:58;;;;;;;;;;;;;;;25.11;63.81;96546.03;617037;230;66629;-69
2023/08/04 00:39:27;;;;;;;;;;;;;;;25.12;63.87;96546.82;616992;230;62059;-69
2023/08/04 00:41:54;;;;;;;;;;;;;;;25.10;63.95;96541.77;617038;230;66889;-69
2023/08/04 00:44:22;;;;;;;;;;;;;;;25.11;63.85;96542.56;617032;230;64573;-69
2023/08/04 00:46:50;;;;;;;;;;;;;;;25.10;63.86;96544.46;617054;230;64377;-69
2023/08/04 00:49:18;;;;;;;;;;;;;;;25.11;63.96;96545.25;617045;230;66739;-69
2023/08/04 00:51:46;;;;;;;;;;;;;;;25.10;63.91;96547.15;617059;230;64260;-69
2023/08/04 00:54:14;;;;;;;;;;;;;;;25.11;64.03;96545.25;617059;230;64800;-69
2023/08/04 00:56:41;;;;;;;;;;;;;;;25.11;64.07;96551.41;617040;230;66805;-73
2023/08/04 00:59:09;;;;;;;;;;;;;;;25.11;64.10;96545.25;617057;230;66466;-73
2023/08/04 01:01:38;;;;;;;;;;;;;;;25.10;64.10;96543.64;617076;229;42995;-73
2023/08/04 01:04:05;;;;;;;;;;;;;;;25.10;64.13;96544.46;617035;230;66735;-73
2023/08/04 01:06:35;;;;;;;;;;;;;;;25.10;64.03;96538.27;617067;230;66877;-73
2023/08/04 01:09:04;;;;;;;;;;;;;;;25.09;63.85;96542.86;617035;230;62489;-73
2023/08/04 01:11:33;;;;;;;;;;;;;;;25.10;63.86;96538.27;616674;229;64351;-73
2023/08/04 01:14:02;;;;;;;;;;;;;;;25.10;63.88;96541.77;617045;230;64448;-73
2023/08/04 01:16:31;;;;;;;;;;;;;;;25.09;63.93;96540.16;617031;230;64595;-73
2023/08/04 01:18:59;;;;;;;;;;;;;;;25.10;63.97;96539.08;617041;230;64675;-73
2023/08/04 01:21:27;;;;;;;;;;;;;;;25.08;63.95;96535.91;617112;230;64162;-73
2023/08/04 01:23:55;;;;;;;;;;;;;;;25.10;64.00;96540.95;617058;230;64593;-73
2023/08/04 01:26:23;;;;;;;;;;;;;;;25.10;64.05;96540.95;617042;230;66187;-73
2023/08/04 01:28:51;;;;;;;;;;;;;;;25.09;64.23;96542.06;617081;230;66150;-73
2023/08/04 01:31:19;;;;;;;;;;;;;;;25.10;66.82;96540.95;617031;230;64498;-73
2023/08/04 01:33:46;;;;;;;;;;;;;;;25.09;67.01;96542.86;617101;230;65490;-69
2023/08/04 01:36:14;;;;;;;;;;;;;;;25.09;67.44;96542.86;617020;230;63887;-69
2023/08/04 01:38:41;;;;;;;;;;;;;;;25.09;67.18;96542.06;617033;230;62455;-69
2023/08/04 01:41:09;;;;;;;;;;;;;;;25.07;66.04;96538.89;617052;230;65390;-69
2023/08/04 01:43:36;;;;;;;;;;;;;;;25.06;65.73;96534.63;609885;230;67527;-68
2023/08/04 01:46:04;;;;;;;;;;;;;;;25.07;65.95;96533.51;617079;230;62570;-69
2023/08/04 01:48:31;;;;;;;;;;;;;;;25.07;64.44;96538.89;617058;230;64282;-69
2023/08/04 01:50:59;;;;;;;;;;;;;;;25.07;64.40;96530.82;617007;230;66669;-69
2023/08/04 01:53:27;;;;;;;;;;;;;;;25.08;64.48;96538.59;617026;230;65160;-69
2023/08/04 01:55:54;;;;;;;;;;;;;;;25.07;64.39;96538.89;616997;230;66834;-69
2023/08/04 01:58:22;;;;;;;;;;;;;;;25.07;64.60;96539.67;617064;230;65502;-69
2023/08/04 02:00:49;;;;;;;;;;;;;;;25.07;64.37;96533.51;617031;230;62371;-69
2023/08/04 02:03:18;;;;;;;;;;;;;;;25.07;64.36;96541.58;617020;230;67233;-69
2023/08/04 02:05:46;;;;;;;;;;;;;;;25.08;67.62;96532.42;617014;230;67504;-69
2023/08/04 02:08:13;;;;;;;;;;;;;;;25.07;69.04;96539.67;617040;230;64576;-69
2023/08/04 02:10:50;;;;;;;;;;;;;;;25.06;68.89;96535.41;617047;230;66693;-67
2023/08/04 02:13:18;;;;;;;;;;;;;;;25.07;69.24;96538.89;617073;229;67343;-67
2023/08/04 02:15:45;;;;;;;;;;;;;;;25.05;67.14;96538.42;617017;230;64673;-71
2023/08/04 02:18:13;;;;;;;;;;;;;;;25.03;65.97;96539.51;616987;230;67040;-72
2023/08/04 02:20:40;;;;;;;;;;;;;;;25.04;65.62;96545.67;617021;230;67087;-72
2023/08/04 02:23:08;;;;;;;;;;;;;;;25.05;65.37;96538.42;617016;230;64800;-71
2023/08/04 02:25:36;;;;;;;;;;;;;;;25.05;64.50;96546.48;617074;230;66846;-72
2023/08/04 02:28:04;;;;;;;;;;;;;;;25.05;64.63;96546.48;617030;230;66606;-72
2023/08/04 02:30:31;;;;;;;;;;;;;;;25.05;64.99;96547.28;617017;230;64399;-71
2023/08/04 02:32:59;;;;;;;;;;;;;;;25.05;64.44;96543.80;617016;230;64491;-72
2023/08/04 02:35:26;;;;;;;;;;;;;;;25.05;64.34;96544.59;617017;230;64583;-72
2023/08/04 02:37:53;;;;;;;;;;;;;;;25.05;64.30;96549.17;617108;230;64633;-72
2023/08/04 02:40:22;;;;;;;;;;;;;;;25.06;66.11;96553.44;617003;230;63907;-72
2023/08/04 02:42:49;;;;;;;;;;;;;;;25.06;68.44;96554.23;617050;230;66835;-72
2023/08/04 02:45:17;;;;;;;;;;;;;;;25.05;68.57;96552.66;616968;230;64454;-72
2023/08/04 02:47:44;;;;;;;;;;;;;;;25.05;69.25;96557.24;617039;230;64969;-71
2023/08/04 02:50:12;;;;;;;;;;;;;;;25.05;69.18;96559.94;617042;230;64362;-71
2023/08/04 02:52:39;;;;;;;;;;;;;;;25.02;66.52;96547.90;617047;230;62467;-71
2023/08/04 02:55:07;;;;;;;;;;;;;;;25.02;67.33;96546.00;617027;230;66687;-71
2023/08/04 02:57:35;;;;;;;;;;;;;;;25.02;67.70;96548.69;617007;230;64235;-72
2023/08/04 03:00:03;;;;;;;;;;;;;;;25.02;66.27;96547.90;617010;230;62454;-72
2023/08/04 03:02:30;;;;;;;;;;;;;;;25.02;66.80;96548.69;617082;230;66754;-72
2023/08/04 03:04:57;;;;;;;;;;;;;;;25.04;67.91;96556.42;617002;230;66635;-72
2023/08/04 03:07:26;;;;;;;;;;;;;;;25.03;67.66;96555.64;617020;230;62494;-72
2023/08/04 03:09:53;;;;;;;;;;;;;;;25.02;65.43;96556.75;617001;230;64512;-72
2023/08/04 03:12:21;;;;;;;;;;;;;;;25.02;65.84;96554.06;616953;227;66578;-71
2023/08/04 03:14:48;;;;;;;;;;;;;;;25.03;67.86;96557.54;617092;230;64553;-72
2023/08/04 03:17:16;;;;;;;;;;;;;;;25.02;69.21;96564.81;617014;230;66700;-72
2023/08/04 03:19:43;;;;;;;;;;;;;;;25.03;69.21;96554.84;617000;230;66552;-67
2023/08/04 03:22:11;;;;;;;;;;;;;;;25.02;70.00;96559.44;617012;230;64702;-67
2023/08/04 03:24:38;;;;;;;;;;;;;;;25.02;69.97;96564.03;617002;230;66896;-67
2023/08/04 03:27:06;;;;;;;;;;;;;;;25.00;69.68;96563.53;617001;230;67737;-67
2023/08/04 03:29:33;;;;;;;;;;;;;;;25.00;69.14;96566.22;617066;230;64650;-67
2023/08/04 03:32:01;;;;;;;;;;;;;;;25.00;69.81;96567.01;617007;230;66618;-67
2023/08/04 03:34:28;;;;;;;;;;;;;;;25.00;68.68;96574.28;616948;230;66894;-72
2023/08/04 03:36:56;;;;;;;;;;;;;;;24.99;68.47;96573.50;617003;230;64630;-72
2023/08/04 03:39:23;;;;;;;;;;;;;;;25.00;69.32;96567.01;617011;230;64330;-72
2023/08/04 03:41:51;;;;;;;;;;;;;;;24.99;69.68;96573.50;617064;230;64334;-72
2023/08/04 03:44:18;;;;;;;;;;;;;;;24.99;69.50;96568.12;617005;230;62457;-72
2023/08/04 03:46:45;;;;;;;;;;;;;;;24.98;68.12;96565.73;617042;230;66687;-72
2023/08/04 03:49:13;;;;;;;;;;;;;;;24.99;69.32;96568.12;617005;230;66605;-72
2023/08/04 03:51:40;;;;;;;;;;;;;;;24.99;69.41;96576.19;617059;230;62517;-72
2023/08/04 03:54:08;;;;;;;;;;;;;;;24.99;68.31;96564.62;617040;230;66659;-72
2023/08/04 03:56:35;;;;;;;;;;;;;;;24.98;67.44;96574.58;616989;230;66700;-72
2023/08/04 03:59:03;;;;;;;;;;;;;;;24.99;67.72;96575.38;617000;230;64473;-72
2023/08/04 04:01:30;;;;;;;;;;;;;;;25.00;69.35;96574.28;617025;230;66780;-72
2023/08/04 04:03:58;;;;;;;;;;;;;;;24.99;69.49;96578.87;617012;230;66542;-72
2023/08/04 04:06:25;;;;;;;;;;;;;;;24.99;68.92;96572.68;617033;230;64570;-72
2023/08/04 04:08:54;;;;;;;;;;;;;;;24.98;68.02;96574.58;616993;230;64486;-72
2023/08/04 04:11:21;;;;;;;;;;;;;;;24.99;69.48;96567.30;616944;229;66671;-72
2023/08/04 04:13:49;;;;;;;;;;;;;;;24.98;69.94;96571.89;617016;230;64576;-72
2023/08/04 04:16:16;;;;;;;;;;;;;;;24.96;67.11;96571.42;617019;230;66807;-72
2023/08/04 04:18:44;;;;;;;;;;;;;;;24.98;68.02;96576.48;617136;230;66782;-72
2023/08/04 04:21:11;;;;;;;;;;;;;;;24.98;68.84;96571.89;617052;230;64593;-72
2023/08/04 04:23:39;;;;;;;;;;;;;;;24.98;67.62;96565.73;617046;230;64507;-72
2023/08/04 04:26:07;;;;;;;;;;;;;;;24.97;67.47;96562.25;617083;230;64642;-72
2023/08/04 04:28:34;;;;;;;;;;;;;;;24.97;68.32;96578.38;617061;230;64656;-72
2023/08/04 04:31:05;;;;;;;;;;;;;;;24.98;69.23;96574.58;617100;230;66934;-72
2023/08/04 04:33:32;;;;;;;;;;;;;;;24.98;69.75;96574.58;617112;230;66712;-73
2023/08/04 04:36:00;;;;;;;;;;;;;;;24.97;68.65;96573.00;616948;230;64681;-73
2023/08/04 04:38:32;;;;;;;;;;;;;;;24.98;68.72;96573.80;617018;230;66726;-73
2023/08/04 04:40:57;;;;;;;;;;;;;;;24.97;69.77;96573.00;616786;229;66387;-73
2023/08/04 04:43:25;;;;;;;;;;;;;;;24.98;70.58;96573.80;616989;230;64633;-73
2023/08/04 04:45:52;;;;;;;;;;;;;;;24.96;68.95;96568.74;616850;230;64558;-72
2023/08/04 04:48:20;;;;;;;;;;;;;;;24.96;69.58;96576.80;616998;230;64740;-73
2023/08/04 04:50:48;;;;;;;;;;;;;;;24.97;69.92;96588.34;616781;230;64788;-73
2023/08/04 04:53:15;;;;;;;;;;;;;;;24.94;69.08;96579.00;617067;230;64330;-72
2023/08/04 04:55:43;;;;;;;;;;;;;;;24.95;68.98;96574.41;617068;230;64812;-72
2023/08/04 04:58:15;;;;;;;;;;;;;;;24.95;68.73;96575.20;617119;230;62430;-73
2023/08/04 05:00:40;;;;;;;;;;;;;;;24.95;68.70;96580.58;616777;229;64450;-73
2023/08/04 05:03:10;;;;;;;;;;;;;;;24.94;68.80;96587.06;617059;230;66726;-72
2023/08/04 05:05:37;;;;;;;;;;;;;;;24.94;68.42;96584.38;617072;230;62468;-72
2023/08/04 05:08:05;;;;;;;;;;;;;;;24.94;68.08;96588.96;617069;230;66781;-72
2023/08/04 05:10:32;;;;;;;;;;;;;;;24.94;68.63;96581.69;617100;230;66608;-72
2023/08/04 05:13:00;;;;;;;;;;;;;;;24.95;69.18;96577.89;617367;229;64587;-73
2023/08/04 05:15:27;;;;;;;;;;;;;;;24.95;69.52;96585.16;617458;228;67118;-73
2023/08/04 05:17:55;;;;;;;;;;;;;;;24.95;69.88;96590.54;617492;228;66632;-73
2023/08/04 05:20:22;;;;;;;;;;;;;;;24.95;69.82;96585.95;619678;225;62429;-72
2023/08/04 05:22:50;;;;;;;;;;;;;;;24.94;69.05;96583.59;618221;224;64410;-72
2023/08/04 05:25:18;;;;;;;;;;;;;;;24.94;68.86;96584.38;618373;225;64336;-72
2023/08/04 05:27:47;;;;;;;;;;;;;;;24.92;70.03;96589.25;619872;225;64563;-72
2023/08/04 05:30:16;;;;;;;;;;;;;;;24.93;69.48;96581.98;619534;225;66483;-72
2023/08/04 05:32:43;;;;;;;;;;;;;;;24.93;69.05;96584.67;622879;225;64324;-72
2023/08/04 05:35:11;;;;;;;;;;;;;;;24.94;68.75;96589.75;619130;224;62494;-72
2023/08/04 05:37:38;;;;;;;;;;;;;;;24.93;66.02;96590.05;622704;228;64177;-72
2023/08/04 05:40:06;;;;;;;;;;;;;;;24.93;66.12;96587.36;622680;228;63949;-72
2023/08/04 05:42:35;;;;;;;;;;;;;;;24.93;64.92;96593.52;622669;228;62604;-72
2023/08/04 05:45:02;;;;;;;;;;;;;;;24.95;64.34;96596.70;622642;228;66595;-72
2023/08/04 05:47:30;;;;;;;;;;;;;;;24.95;64.42;96595.91;619100;225;63760;-73
2023/08/04 05:49:57;;;;;;;;;;;;;;;24.96;64.42;96602.87;616895;230;64562;-72
2023/08/04 05:52:27;;;;;;;;;;;;;;;24.96;64.24;96602.87;617425;230;66592;-73
2023/08/04 05:54:54;;;;;;;;;;;;;;;24.96;64.20;96598.31;617227;229;66177;-73
2023/08/04 05:57:22;;;;;;;;;;;;;;;24.97;64.08;96599.89;618464;227;62435;-72
2023/08/04 05:59:49;;;;;;;;;;;;;;;24.96;64.26;96598.31;621585;228;66780;-71
2023/08/04 06:02:17;;;;;;;;;;;;;;;24.98;64.14;96597.98;621610;228;66897;-77
2023/08/04 06:04:44;;;;;;;;;;;;;;;24.98;63.45;96596.09;621506;228;64652;-73
2023/08/04 06:07:13;;;;;;;;;;;;;;;24.99;63.90;96597.70;621583;228;66744;-71
2023/08/04 06:09:41;;;;;;;;;;;;;;;24.99;64.16;96592.31;621577;228;66713;-74
2023/08/04 06:12:10;;;;;;;;;;;;;;;24.99;63.34;96592.31;621507;228;64535;-73
2023/08/04 06:14:38;;;;;;;;;;;;;;;25.00;63.07;96585.83;621557;228;64509;-72
2023/08/04 06:17:05;;;;;;;;;;;;;;;24.99;64.40;96583.44;621603;228;64261;-71
2023/08/04 06:19:33;;;;;;;;;;;;;;;24.99;64.36;96586.13;621580;228;62483;-73
2023/08/04 06:22:00;;;;;;;;;;;;;;;24.98;64.46;96590.71;621569;228;64396;-69
2023/08/04 06:24:28;;;;;;;;;;;;;;;24.99;64.24;96586.94;620967;225;66902;-75
2023/08/04 06:26:56;;;;;;;;;;;;;;;25.00;64.25;96576.98;620686;227;64953;-74
2023/08/04 06:29:23;;;;;;;;;;;;;;;25.00;64.24;96585.04;619308;225;67045;-73
2023/08/04 06:31:50;;;;;;;;;;;;;;;25.01;64.25;96592.78;608935;228;70146;-73
2023/08/04 06:34:18;;;;;;;;;;;;;;;25.01;64.27;96587.41;599211;227;67978;-71
2023/08/04 06:36:46;;;;;;;;;;;;;;;25.03;64.21;96584.42;624043;227;68515;-72
2023/08/04 07:07:32;;;;;;;;;;;;;;;25.14;64.04;96558.07;580619;235;38668;-75
2023/08/04 07:10:00;;;;;;;;;;;;;;;25.14;64.02;96550.80;588418;240;67697;-73
2023/08/04 07:12:27;;;;;;;;;;;;;;;25.14;63.88;96550.00;587326;240;66138;-73
2023/08/04 07:14:55;;;;;;;;;;;;;;;25.15;64.06;96551.61;591176;240;62567;-72
2023/08/04 07:17:22;;;;;;;;;;;;;;;25.16;64.08;96559.38;591227;240;64262;-73
2023/08/04 07:19:50;;;;;;;;;;;;;;;25.16;64.20;96553.22;591191;240;64812;-69
2023/08/04 07:22:17;;;;;;;;;;;;;;;25.16;64.14;96547.84;591138;240;64648;-71
2023/08/04 07:24:47;;;;;;;;;;;;;;;25.17;64.24;96554.79;591198;240;67683;-71
2023/08/04 07:27:14;;;;;;;;;;;;;;;25.17;64.21;96549.41;591288;240;66671;-73
2023/08/04 07:29:42;;;;;;;;;;;;;;;25.18;64.08;96551.80;591167;240;62480;-73
2023/08/04 07:32:09;;;;;;;;;;;;;;;25.18;64.20;96548.30;591241;240;66750;-72
2023/08/04 07:34:37;;;;;;;;;;;;;;;25.19;64.16;96550.69;591197;240;66808;-72
2023/08/04 07:37:05;;;;;;;;;;;;;;;25.20;64.28;96543.41;591190;240;64617;-67
2023/08/04 07:39:32;;;;;;;;;;;;;;;25.21;64.22;96545.02;590905;240;66686;-68
2023/08/04 07:42:00;;;;;;;;;;;;;;;25.20;64.18;96544.20;590660;240;64569;-67
2023/08/04 07:44:29;;;;;;;;;;;;;;;25.21;63.99;96548.50;590903;240;64859;-66
2023/08/04 07:46:57;;;;;;;;;;;;;;;25.22;63.95;96551.97;591031;240;67272;-68
2023/08/04 07:49:24;;;;;;;;;;;;;;;25.22;63.82;96555.45;590948;240;64657;-68
2023/08/04 07:51:52;;;;;;;;;;;;;;;25.23;63.76;96551.64;591022;240;62750;-72
2023/08/04 07:54:19;;;;;;;;;;;;;;;25.24;63.68;96555.94;591038;240;66873;-73
2023/08/04 07:56:47;;;;;;;;;;;;;;;25.25;63.38;96556.73;591173;240;66416;-71
2023/08/04 07:59:14;;;;;;;;;;;;;;;25.24;63.25;96550.56;591202;240;64642;-71
2023/08/04 08:01:42;;;;;;;;;;;;;;;25.24;63.13;96547.08;591253;240;66795;-71
2023/08/04 08:04:09;;;;;;;;;;;;;;;25.24;63.16;96553.25;591347;240;66677;-70
2023/08/04 08:06:37;;;;;;;;;;;;;;;25.26;62.95;96550.23;589586;240;64751;-72
2023/08/04 08:09:04;;;;;;;;;;;;;;;25.26;62.85;96550.23;592825;237;66737;-74
2023/08/04 08:11:32;;;;;;;;;;;;;;;25.27;62.86;96542.98;593135;237;66711;-74
2023/08/04 08:14:02;;;;;;;;;;;;;;;25.27;62.89;96543.77;593116;237;44727;-72
2023/08/04 08:16:29;;;;;;;;;;;;;;;25.28;62.96;96541.88;593904;237;67812;-71
2023/08/04 08:18:57;;;;;;;;;;;;;;;25.28;62.92;96539.18;598209;237;66658;-69
2023/08/04 08:21:24;;;;;;;;;;;;;;;25.27;63.03;96533.02;596977;237;64589;-73
2023/08/04 08:23:52;;;;;;;;;;;;;;;25.28;62.95;96539.18;594088;237;65378;-74
2023/08/04 08:26:19;;;;;;;;;;;;;;;25.28;62.87;96539.18;595012;237;64134;-73
2023/08/04 08:28:47;;;;;;;;;;;;;;;25.28;62.90;96531.91;593887;237;62590;-68
2023/08/04 08:31:14;;;;;;;;;;;;;;;25.29;62.87;96530.81;594106;237;66949;-68
2023/08/04 08:33:42;;;;;;;;;;;;;;;25.29;62.88;96543.45;594002;237;67033;-67
2023/08/04 08:36:09;;;;;;;;;;;;;;;25.29;62.77;96530.81;594437;237;64713;-67
2023/08/04 08:38:37;;;;;;;;;;;;;;;25.29;62.70;96530.81;594150;237;66797;-68
2023/08/04 08:41:04;;;;;;;;;;;;;;;25.30;62.64;96528.91;595441;237;64751;-68
2023/08/04 08:43:32;;;;;;;;;;;;;;;25.29;62.58;96528.13;591833;237;62620;-69
2023/08/04 08:46:00;;;;;;;;;;;;;;;25.29;62.50;96530.81;591687;240;64552;-70
2023/08/04 08:48:29;;;;;;;;;;;;;;;25.29;62.51;96530.81;594232;237;66862;-68
2023/08/04 08:50:58;;;;;;;;;;;;;;;25.30;62.47;96529.70;593749;237;62841;-68
2023/08/04 08:53:27;;;;;;;;;;;;;;;25.30;62.52;96528.91;595316;237;64811;-69
2023/08/04 08:55:55;;;;;;;;;;;;;;;25.30;62.57;96528.91;593824;237;63139;-68
2023/08/04 08:58:23;;;;;;;;;;;;;;;25.31;62.62;96527.80;595136;237;62654;-69
2023/08/04 09:00:50;;;;;;;;;;;;;;;25.31;62.54;96530.48;594405;237;67300;-67
2023/08/04 09:03:18;;;;;;;;;;;;;;;25.30;62.48;96529.70;594449;237;66980;-69
2023/08/04 09:05:46;;;;;;;;;;;;;;;25.31;62.43;96536.66;594055;237;64783;-67
2023/08/04 09:08:13;;;;;;;;;;;;;;;25.31;62.31;96530.48;595522;236;67059;-68
2023/08/04 09:10:44;;;;;;;;;;;;;;;25.31;62.15;96522.42;595449;236;66715;-64
2023/08/04 09:13:10;;;;;;;;;;;;;;;25.30;61.92;96526.22;599752;236;64775;-65
2023/08/04 09:15:48;;;;;;;;;;;;;;;25.31;62.54;96522.42;599020;236;67695;-63
2023/08/04 09:18:20;;;;;;;;;;;;;;;25.30;61.52;96513.56;596760;236;67504;-63
2023/08/04 09:20:47;;;;;;;;;;;;;;;25.31;61.27;96512.45;595289;236;64789;-63
2023/08/04 09:23:15;;;;;;;;;;;;;;;25.31;61.30;96515.14;596664;236;66757;-65
2023/08/04 09:25:55;;;;;;;;;;;;;;;25.31;61.25;96507.07;597318;236;66658;-64
2023/08/04 09:28:22;;;;;;;;;;;;;;;25.32;61.18;96500.61;596191;236;62631;-64
2023/08/04 09:31:09;;;;;;;;;;;;;;;25.31;61.17;96515.14;595867;236;69264;-65
2023/08/04 09:33:41;;;;;;;;;;;;;;;25.32;61.11;96507.86;599663;236;66863;-63
2023/08/04 09:36:11;;;;;;;;;;;;;;;25.33;61.02;96504.08;600263;236;62777;-64
2023/08/04 09:38:39;;;;;;;;;;;;;;;25.32;60.97;96502.48;599231;236;65229;-65
2023/08/04 09:41:08;;;;;;;;;;;;;;;25.32;60.85;96499.79;595475;236;66324;-64
2023/08/04 09:43:35;;;;;;;;;;;;;;;25.32;60.71;96502.48;597344;236;62667;-64
2023/08/04 09:46:07;;;;;;;;;;;;;;;25.32;60.60;96497.91;600240;236;64650;-65
2023/08/04 09:48:34;;;;;;;;;;;;;;;25.31;60.60;96490.93;597288;236;64826;-65
2023/08/04 09:51:11;;;;;;;;;;;;;;;25.34;60.51;96500.28;595691;236;62697;-78
2023/08/04 09:53:37;;;;;;;;;;;;;;;25.33;60.43;96491.42;599597;236;66598;-78
2023/08/04 09:56:04;;;;;;;;;;;;;;;25.34;60.32;96493.00;596906;236;64112;-73
2023/08/04 09:58:33;;;;;;;;;;;;;;;25.34;60.40;96487.62;597898;236;62387;-76
2023/08/04 10:01:02;;;;;;;;;;;;;;;25.34;60.40;96490.30;593303;236;66557;-73
2023/08/04 10:03:30;;;;;;;;;;;;;;;25.33;60.35;96486.04;592315;239;65615;-73
2023/08/04 10:05:59;;;;;;;;;;;;;;;25.35;60.37;96491.12;592385;239;64636;-72
2023/08/04 10:08:31;;;;;;;;;;;;;;;25.35;60.40;96491.12;588658;236;66809;-73
2023/08/04 10:11:00;;;;;;;;;;;;;;;25.34;60.30;96484.92;584532;242;66773;-72
2023/08/04 10:13:28;;;;;;;;;;;;;;;25.34;60.20;96489.52;584846;242;64795;-72
2023/08/04 10:15:57;;;;;;;;;;;;;;;25.33;60.52;96486.04;584986;242;67145;-76
2023/08/04 10:18:29;;;;;;;;;;;;;;;25.34;60.08;96484.92;585007;242;66821;-74
2023/08/04 10:20:58;;;;;;;;;;;;;;;25.35;59.98;96488.44;584202;240;64616;-75
2023/08/04 10:23:25;;;;;;;;;;;;;;;25.35;59.90;96480.36;584935;240;66839;-76
2023/08/04 10:25:57;;;;;;;;;;;;;;;25.35;60.10;96481.15;584949;242;65049;-75
2023/08/04 10:28:25;;;;;;;;;;;;;;;25.35;61.72;96491.91;584926;240;62060;-76
2023/08/04 10:31:06;;;;;;;;;;;;;;;25.35;62.40;96483.84;584944;242;66800;-74
2023/08/04 10:33:34;;;;;;;;;;;;;;;25.34;60.27;96490.30;584982;242;66879;-74
2023/08/04 10:36:09;;;;;;;;;;;;;;;25.34;60.40;96479.55;584954;242;64477;-74
2023/08/04 10:38:49;;;;;;;;;;;;;;;25.35;59.93;96478.46;584912;242;67113;-75
2023/08/04 10:41:17;;;;;;;;;;;;;;;25.36;59.74;96482.73;584993;242;66629;-74
2023/08/04 10:43:46;;;;;;;;;;;;;;;25.36;60.46;96477.34;584948;242;64599;-76
2023/08/04 10:46:15;;;;;;;;;;;;;;;25.36;63.24;96476.56;584273;242;66854;-74
2023/08/04 10:48:42;;;;;;;;;;;;;;;25.35;60.63;96480.36;584833;242;66707;-74
2023/08/04 10:51:10;;;;;;;;;;;;;;;25.36;59.84;96473.87;584938;242;64772;-74
2023/08/04 10:53:38;;;;;;;;;;;;;;;25.35;59.75;96472.30;584981;242;64793;-76
2023/08/04 10:56:07;;;;;;;;;;;;;;;25.35;59.83;96461.53;584930;242;64317;-70
2023/08/04 10:58:35;;;;;;;;;;;;;;;25.36;59.62;96460.42;584924;242;64570;-71
2023/08/04 11:01:03;;;;;;;;;;;;;;;25.35;59.62;96454.25;584952;242;64707;-71
2023/08/04 11:03:33;;;;;;;;;;;;;;;25.37;59.65;96451.23;585312;240;64929;-69
2023/08/04 11:06:01;;;;;;;;;;;;;;;25.36;59.60;96455.05;587696;240;62765;-73
2023/08/04 11:08:28;;;;;;;;;;;;;;;25.37;59.58;96457.44;591648;236;66983;-74
2023/08/04 11:10:57;;;;;;;;;;;;;;;25.37;59.52;96453.92;595864;236;66692;-77
2023/08/04 11:13:26;;;;;;;;;;;;;;;25.38;59.43;96455.53;595146;236;64597;-75
2023/08/04 11:15:53;;;;;;;;;;;;;;;25.38;59.40;96452.84;596464;236;64753;-74
2023/08/04 11:18:23;;;;;;;;;;;;;;;25.39;59.23;96457.89;594426;236;62649;-72
2023/08/04 11:20:51;;;;;;;;;;;;;;;25.45;59.37;96453.97;599955;236;64652;-72
2023/08/04 11:23:30;;;;;;;;;;;;;;;25.43;58.73;96445.41;600257;236;64385;-72
2023/08/04 11:25:55;;;;;;;;;;;;;;;25.42;58.38;96449.19;599867;236;66882;-75
2023/08/04 11:28:24;;;;;;;;;;;;;;;25.46;59.13;96444.00;598193;236;64596;-76
2023/08/04 11:30:51;;;;;;;;;;;;;;;25.45;58.56;96448.59;596885;236;64884;-75
2023/08/04 11:33:19;;;;;;;;;;;;;;;25.44;58.47;96446.98;592280;239;64863;-75
2023/08/04 11:35:46;;;;;;;;;;;;;;;25.44;58.42;96441.61;592298;239;65804;-73
2023/08/04 11:38:15;;;;;;;;;;;;;;;25.43;58.43;96445.41;594069;236;66939;-73
2023/08/04 11:41:01;;;;;;;;;;;;;;;25.43;58.43;96439.25;596264;236;64376;-75
2023/08/04 11:43:31;;;;;;;;;;;;;;;25.43;58.36;96444.63;594997;236;62696;-75
2023/08/04 11:45:58;;;;;;;;;;;;;;;25.42;58.40;96433.05;594718;236;67099;-75
2023/08/04 11:48:26;;;;;;;;;;;;;;;25.43;58.39;96439.25;595343;236;66848;-74
2023/08/04 11:50:54;;;;;;;;;;;;;;;25.42;58.34;96430.36;595721;236;67660;-74
2023/08/04 11:53:22;;;;;;;;;;;;;;;25.42;58.32;96426.88;596510;236;64755;-75
2023/08/04 11:56:00;;;;;;;;;;;;;;;25.43;58.13;96431.97;600229;236;65696;-75
2023/08/04 11:58:39;;;;;;;;;;;;;;;25.44;58.13;96425.47;597999;236;62549;-75
2023/08/04 12:01:09;;;;;;;;;;;;;;;25.44;58.08;96430.06;596704;236;69286;-66
2023/08/04 12:03:41;;;;;;;;;;;;;;;25.43;58.05;96423.89;594702;236;64893;-66
2023/08/04 12:06:12;;;;;;;;;;;;;;;25.43;58.03;96421.20;596603;236;64859;-68
2023/08/04 12:08:40;;;;;;;;;;;;;;;25.43;58.14;96418.52;595315;236;66989;-67
2023/08/04 12:11:08;;;;;;;;;;;;;;;25.44;58.10;96419.30;593724;237;64462;-72
2023/08/04 12:13:35;;;;;;;;;;;;;;;25.43;57.87;96420.42;594921;237;64592;-76
2023/08/04 12:16:03;;;;;;;;;;;;;;;25.42;57.69;96408.84;594696;237;64617;-73
2023/08/04 12:18:30;;;;;;;;;;;;;;;25.45;58.29;96416.31;593502;237;65669;-70
2023/08/04 12:20:58;;;;;;;;;;;;;;;25.45;57.76;96415.49;594152;237;62494;-71
2023/08/04 12:23:25;;;;;;;;;;;;;;;25.44;57.89;96409.33;595113;237;64689;-66
2023/08/04 12:25:53;;;;;;;;;;;;;;;25.45;58.88;96404.73;594664;237;64695;-66
2023/08/04 12:28:20;;;;;;;;;;;;;;;25.48;57.97;96409.48;594057;237;62667;-65
2023/08/04 12:30:48;;;;;;;;;;;;;;;25.49;58.90;96407.61;596408;237;64553;-73
2023/08/04 12:33:16;;;;;;;;;;;;;;;25.51;59.22;96397.30;594564;237;66806;-86
2023/08/04 12:35:43;;;;;;;;;;;;;;;25.51;58.82;96403.50;594465;237;64445;-81
2023/08/04 12:38:12;;;;;;;;;;;;;;;25.53;58.72;96401.26;594703;237;66512;-68
2023/08/04 12:40:40;;;;;;;;;;;;;;;25.55;58.37;96393.67;594817;237;66885;-67
2023/08/04 12:43:08;;;;;;;;;;;;;;;25.58;58.62;96389.56;594698;237;67011;-79
2023/08/04 12:45:35;;;;;;;;;;;;;;;25.59;58.54;96385.75;593561;237;65149;-73
2023/08/04 12:48:05;;;;;;;;;;;;;;;25.60;58.50;96393.52;594744;237;65572;-71
2023/08/04 12:50:33;;;;;;;;;;;;;;;25.61;58.79;96387.02;595975;237;62540;-72
2023/08/04 12:53:00;;;;;;;;;;;;;;;25.61;59.30;96389.71;591752;240;65494;-70
2023/08/04 12:55:27;;;;;;;;;;;;;;;25.62;59.93;96385.15;591766;240;64581;-69
2023/08/04 12:57:55;;;;;;;;;;;;;;;25.63;59.49;96374.05;591628;240;64634;-69
2023/08/04 13:00:23;;;;;;;;;;;;;;;25.65;59.37;96376.44;591824;239;67418;-68
2023/08/04 13:02:50;;;;;;;;;;;;;;;25.65;59.39;96376.44;591714;240;66723;-70
2023/08/04 13:05:18;;;;;;;;;;;;;;;25.66;59.34;96376.11;591697;240;64671;-68
2023/08/04 13:07:47;;;;;;;;;;;;;;;25.68;60.37;96381.19;592192;239;64736;-70
2023/08/04 13:10:15;;;;;;;;;;;;;;;25.68;61.00;96375.80;593606;239;64638;-66
2023/08/04 13:12:42;;;;;;;;;;;;;;;25.69;59.59;96366.61;595029;236;62182;-68
2023/08/04 13:15:10;;;;;;;;;;;;;;;25.69;58.56;96366.61;597371;236;64728;-69
2023/08/04 13:17:37;;;;;;;;;;;;;;;25.70;58.81;96370.91;595722;236;66890;-68
2023/08/04 13:20:08;;;;;;;;;;;;;;;25.69;57.20;96363.92;597024;236;62484;-68